createdAt,value
2023-03-11T00:02:00.328Z,4.50
2023-03-11T00:04:45.821Z,4.50
2023-03-11T00:07:31.112Z,4.60
2023-03-11T00:10:22.514Z,4.40
2023-03-11T00:13:10.260Z,4.60
2023-03-11T00:15:56.766Z,4.50
2023-03-11T00:18:42.155Z,4.70
2023-03-11T00:21:27.396Z,4.70
2023-03-11T00:24:12.911Z,4.70
2023-03-11T00:26:58.555Z,4.80
2023-03-11T00:29:44.002Z,4.80
2023-03-11T00:32:29.515Z,4.80
2023-03-11T00:35:17.992Z,4.90
2023-03-11T00:38:07.018Z,4.80
2023-03-11T00:40:52.548Z,4.80
2023-03-11T00:43:38.084Z,4.80
2023-03-11T00:46:23.526Z,4.80
2023-03-11T00:49:08.893Z,4.70
2023-03-11T00:51:54.478Z,4.70
2023-03-11T00:54:40.126Z,4.80
2023-03-11T00:57:27.887Z,4.90
2023-03-11T01:00:16.110Z,5.00
2023-03-11T01:03:01.818Z,4.90
2023-03-11T01:05:47.187Z,4.80
2023-03-11T01:08:33.112Z,5.00
2023-03-11T01:11:18.517Z,5.00
2023-03-11T01:14:04.354Z,5.00
2023-03-11T01:16:49.984Z,4.70
2023-03-11T01:19:35.391Z,4.80
2023-03-11T01:22:21.006Z,4.90
2023-03-11T01:25:06.946Z,5.00
2023-03-11T01:27:52.569Z,5.00
2023-03-11T01:30:40.592Z,4.90
2023-03-11T01:33:25.840Z,4.90
2023-03-11T01:36:11.248Z,4.80
2023-03-11T01:38:56.799Z,4.70
2023-03-11T01:41:42.434Z,4.70
2023-03-11T01:44:29.972Z,4.70
2023-03-11T01:47:15.287Z,4.70
2023-03-11T01:50:02.080Z,5.00
2023-03-11T01:52:47.941Z,4.90
2023-03-11T01:55:34.292Z,4.80
2023-03-11T01:58:25.496Z,5.40
2023-03-11T02:01:12.492Z,4.60
2023-03-11T02:03:58.371Z,4.30
2023-03-11T02:06:44.067Z,5.10
2023-03-11T02:09:29.707Z,4.80
2023-03-11T02:12:15.870Z,4.70
2023-03-11T02:15:02.088Z,4.80
2023-03-11T02:17:47.553Z,4.90
2023-03-11T02:20:44.155Z,4.90
2023-03-11T02:23:41.102Z,4.70
2023-03-11T02:26:36.088Z,4.60
2023-03-11T02:29:23.045Z,4.80
2023-03-11T02:32:10.247Z,4.80
2023-03-11T02:34:55.465Z,4.80
2023-03-11T02:37:49.269Z,4.90
2023-03-11T02:40:40.603Z,4.70
2023-03-11T02:43:37.495Z,4.50
2023-03-11T02:46:23.111Z,4.50
2023-03-11T02:49:09.261Z,5.50
2023-03-11T02:51:54.705Z,4.80
2023-03-11T02:54:40.302Z,4.80
2023-03-11T02:57:25.989Z,4.60
2023-03-11T03:00:14.014Z,4.60
2023-03-11T03:02:59.274Z,4.90
2023-03-11T03:05:44.659Z,4.90
2023-03-11T03:08:30.306Z,5.10
2023-03-11T03:11:15.542Z,4.80
2023-03-11T03:14:01.055Z,4.90
2023-03-11T03:16:46.546Z,4.90
2023-03-11T03:19:31.938Z,4.80
2023-03-11T03:22:17.502Z,4.70
2023-03-11T03:25:02.996Z,7.30
2023-03-11T03:27:49.638Z,4.70
2023-03-11T03:30:35.265Z,4.80
2023-03-11T03:33:20.675Z,4.90
2023-03-11T03:36:08.469Z,4.80
2023-03-11T03:38:58.006Z,4.90
2023-03-11T03:41:43.199Z,4.80
2023-03-11T03:44:30.648Z,4.70
2023-03-11T03:47:16.032Z,4.60
2023-03-11T03:50:07.252Z,4.60
2023-03-11T03:52:52.734Z,4.60
2023-03-11T03:55:38.261Z,4.70
2023-03-11T03:58:23.663Z,4.70
2023-03-11T04:01:11.358Z,4.60
2023-03-11T04:03:56.694Z,4.80
2023-03-11T04:06:42.900Z,5.00
2023-03-11T04:09:28.218Z,4.90
2023-03-11T04:12:15.496Z,4.80
2023-03-11T04:15:00.875Z,5.00
2023-03-11T04:17:46.576Z,5.10
2023-03-11T04:20:32.021Z,5.00
2023-03-11T04:23:17.584Z,4.70
2023-03-11T04:26:03.424Z,4.60
2023-03-11T04:28:49.252Z,4.40
2023-03-11T04:31:34.766Z,4.30
2023-03-11T04:34:20.200Z,4.40
2023-03-11T04:37:05.611Z,4.30
2023-03-11T04:39:53.386Z,4.30
2023-03-11T04:42:39.180Z,4.30
2023-03-11T04:45:24.903Z,4.50
2023-03-11T04:48:10.235Z,4.40
2023-03-11T04:50:55.749Z,6.40
2023-03-11T04:53:41.047Z,4.30
2023-03-11T04:56:26.529Z,4.30
2023-03-11T04:59:12.128Z,4.20
2023-03-11T05:01:57.613Z,4.30
2023-03-11T05:04:43.223Z,4.30
2023-03-11T05:07:28.959Z,4.40
2023-03-11T05:10:15.142Z,4.50
2023-03-11T05:13:00.593Z,4.50
2023-03-11T05:15:47.123Z,4.70
2023-03-11T05:18:32.686Z,4.70
2023-03-11T05:21:18.168Z,4.70
2023-03-11T05:24:03.751Z,4.70
2023-03-11T05:26:49.370Z,4.80
2023-03-11T05:29:34.771Z,4.70
2023-03-11T05:32:20.285Z,4.60
2023-03-11T05:35:08.627Z,4.60
2023-03-11T05:37:54.899Z,4.60
2023-03-11T05:40:40.928Z,4.70
2023-03-11T05:43:26.685Z,4.30
2023-03-11T05:46:12.260Z,4.10
2023-03-11T05:48:58.803Z,3.70
2023-03-11T05:51:44.183Z,4.40
2023-03-11T05:54:30.464Z,3.70
2023-03-11T05:57:15.882Z,3.80
2023-03-11T06:00:01.247Z,3.80
2023-03-11T06:02:46.886Z,3.80
2023-03-11T06:05:32.331Z,3.60
2023-03-11T06:08:17.894Z,3.50
2023-03-11T06:11:05.685Z,3.40
2023-03-11T06:13:53.962Z,3.40
2023-03-11T06:16:39.946Z,3.30
2023-03-11T06:19:26.045Z,3.20
2023-03-11T06:22:11.450Z,3.40
2023-03-11T06:24:56.790Z,3.60
2023-03-11T06:27:44.525Z,3.60
2023-03-11T06:30:30.159Z,3.60
2023-03-11T06:33:15.539Z,4.00
2023-03-11T06:36:02.090Z,3.80
2023-03-11T06:38:49.369Z,3.60
2023-03-11T06:41:35.059Z,3.80
2023-03-11T06:44:20.546Z,3.60
2023-03-11T06:47:06.204Z,3.50
2023-03-11T06:49:52.155Z,3.50
2023-03-11T06:52:37.465Z,5.30
2023-03-11T06:55:23.003Z,3.60
2023-03-11T06:58:08.467Z,3.60
2023-03-11T07:00:54.053Z,3.40
2023-03-11T07:03:40.229Z,3.40
2023-03-11T07:06:27.389Z,3.20
2023-03-11T07:09:13.134Z,3.10
2023-03-11T07:11:58.767Z,3.00
2023-03-11T07:14:44.375Z,3.00
2023-03-11T07:17:30.081Z,3.00
2023-03-11T07:20:15.419Z,2.70
2023-03-11T07:23:00.634Z,2.70
2023-03-11T07:25:47.514Z,2.80
2023-03-11T07:28:32.910Z,2.70
2023-03-11T07:31:21.329Z,2.70
2023-03-11T07:34:11.349Z,2.70
2023-03-11T07:36:56.537Z,2.70
2023-03-11T07:39:42.020Z,3.00
2023-03-11T07:42:27.624Z,3.00
2023-03-11T07:45:13.912Z,3.10
2023-03-11T07:47:59.872Z,3.10
2023-03-11T07:50:45.310Z,3.20
2023-03-11T07:53:30.960Z,3.30
2023-03-11T07:56:17.233Z,3.40
2023-03-11T07:59:03.696Z,3.30
2023-03-11T08:01:50.697Z,3.40
2023-03-11T08:04:36.277Z,3.40
2023-03-11T08:07:21.840Z,2.90
2023-03-11T08:10:08.120Z,3.00
2023-03-11T08:12:53.613Z,2.70
2023-03-11T08:15:38.961Z,2.80
2023-03-11T08:18:24.253Z,2.70
2023-03-11T08:21:13.162Z,2.80
2023-03-11T08:24:00.330Z,2.80
2023-03-11T08:26:45.946Z,2.60
2023-03-11T08:29:31.596Z,2.70
2023-03-11T08:32:19.776Z,2.70
2023-03-11T08:35:05.858Z,2.90
2023-03-11T08:37:51.611Z,3.00
2023-03-11T08:40:36.973Z,3.90
2023-03-11T08:43:22.269Z,3.30
2023-03-11T08:46:08.066Z,3.30
2023-03-11T08:48:54.155Z,3.00
2023-03-11T08:51:39.253Z,2.80
2023-03-11T08:54:24.821Z,3.00
2023-03-11T08:57:10.436Z,3.00
2023-03-11T08:59:58.271Z,3.10
2023-03-11T09:02:43.883Z,3.10
2023-03-11T09:05:29.433Z,2.80
2023-03-11T09:08:15.113Z,3.20
2023-03-11T09:11:00.670Z,3.30
2023-03-11T09:13:45.925Z,3.50
2023-03-11T09:16:31.608Z,3.40
2023-03-11T09:19:16.994Z,3.30
2023-03-11T09:22:03.590Z,4.20
2023-03-11T09:24:49.522Z,3.40
2023-03-11T09:27:35.054Z,3.60
2023-03-11T09:30:20.585Z,3.70
2023-03-11T09:33:06.575Z,4.50
2023-03-11T09:35:52.062Z,3.70
2023-03-11T09:38:37.671Z,4.00
2023-03-11T09:41:51.546Z,5.40
2023-03-11T09:44:48.944Z,4.30
2023-03-11T09:47:50.668Z,4.50
2023-03-11T09:50:57.992Z,4.60
2023-03-11T09:53:54.957Z,4.40
2023-03-11T09:56:44.616Z,4.40
2023-03-11T09:59:34.757Z,4.20
2023-03-11T10:02:26.602Z,4.20
2023-03-11T10:05:26.206Z,4.20
2023-03-11T10:08:48.875Z,4.40
2023-03-11T10:12:16.649Z,4.60
2023-03-11T10:15:16.346Z,4.40
2023-03-11T10:18:37.849Z,4.10
2023-03-11T10:22:04.780Z,4.20
2023-03-11T10:25:17.680Z,4.40
2023-03-11T10:28:14.557Z,4.10
2023-03-11T10:31:19.037Z,4.20
2023-03-11T10:34:15.539Z,4.40
2023-03-11T10:37:07.135Z,4.50
2023-03-11T10:39:53.129Z,4.40
2023-03-11T10:42:38.648Z,4.70
2023-03-11T10:45:24.651Z,4.40
2023-03-11T10:48:18.367Z,4.50
2023-03-11T10:51:11.095Z,4.70
2023-03-11T10:53:58.939Z,5.00
2023-03-11T10:56:54.001Z,5.20
2023-03-11T10:59:48.657Z,5.70
2023-03-11T11:02:50.271Z,5.80
2023-03-11T11:05:36.653Z,5.70
2023-03-11T11:08:21.793Z,6.00
2023-03-11T11:11:21.741Z,7.50
2023-03-11T11:14:09.430Z,7.70
2023-03-11T11:16:57.773Z,5.70
2023-03-11T11:19:48.602Z,5.70
2023-03-11T11:22:34.215Z,5.40
2023-03-11T11:25:37.162Z,5.50
2023-03-11T11:28:22.638Z,5.70
2023-03-11T11:31:23.767Z,5.60
2023-03-11T11:34:31.353Z,6.30
2023-03-11T11:37:16.952Z,5.60
2023-03-11T11:40:17.072Z,5.60
2023-03-11T11:43:17.822Z,5.20
2023-03-11T11:46:11.038Z,5.10
2023-03-11T11:49:14.664Z,5.10
2023-03-11T11:52:09.506Z,5.00
2023-03-11T11:55:01.596Z,4.80
2023-03-11T11:57:47.439Z,4.70
2023-03-11T12:00:41.338Z,4.70
2023-03-11T12:03:38.847Z,5.10
2023-03-11T12:06:45.242Z,4.60
2023-03-11T12:09:52.193Z,4.30
2023-03-11T12:12:44.721Z,4.40
2023-03-11T12:15:57.935Z,4.60
2023-03-11T12:18:49.553Z,4.40
2023-03-11T12:21:47.008Z,5.30
2023-03-11T12:24:56.433Z,4.50
2023-03-11T12:27:47.647Z,4.40
2023-03-11T12:30:41.910Z,4.50
2023-03-11T12:33:37.019Z,4.70
2023-03-11T12:36:32.824Z,4.90
2023-03-11T12:39:34.257Z,4.70
2023-03-11T12:42:26.926Z,4.50
2023-03-11T12:45:48.965Z,4.40
2023-03-11T12:48:50.196Z,4.50
2023-03-11T12:51:37.652Z,4.80
2023-03-11T12:54:34.160Z,4.80
2023-03-11T12:57:22.432Z,5.00
2023-03-11T13:00:12.088Z,4.90
2023-03-11T13:03:27.150Z,5.20
2023-03-11T13:06:24.157Z,5.50
2023-03-11T13:09:16.245Z,5.60
2023-03-11T13:12:02.397Z,5.70
2023-03-11T13:14:47.989Z,5.40
2023-03-11T13:17:33.483Z,5.40
2023-03-11T13:20:43.794Z,5.70
2023-03-11T13:23:36.468Z,5.60
2023-03-11T13:26:40.631Z,6.80
2023-03-11T13:29:57.501Z,6.20
2023-03-11T13:33:08.495Z,6.50
2023-03-11T13:36:26.900Z,6.40
2023-03-11T13:39:30.969Z,6.30
2023-03-11T13:42:35.515Z,6.40
2023-03-11T13:45:35.941Z,6.60
2023-03-11T13:48:30.274Z,6.40
2023-03-11T13:51:28.014Z,6.60
2023-03-11T13:54:17.887Z,6.20
2023-03-11T13:57:03.936Z,6.00
2023-03-11T13:59:54.103Z,6.00
2023-03-11T14:02:46.044Z,6.00
2023-03-11T14:05:33.368Z,6.10
2023-03-11T14:08:20.988Z,6.30
2023-03-11T14:11:12.147Z,7.60
2023-03-11T14:13:57.541Z,6.40
2023-03-11T14:16:45.730Z,6.20
2023-03-11T14:19:30.992Z,6.30
2023-03-11T14:22:16.741Z,6.30
2023-03-11T14:25:08.179Z,6.30
2023-03-11T14:28:00.927Z,6.30
2023-03-11T14:31:00.125Z,6.20
2023-03-11T14:33:58.733Z,6.30
2023-03-11T14:36:49.690Z,6.40
2023-03-11T14:39:36.537Z,6.40
2023-03-11T14:42:23.937Z,5.90
2023-03-11T14:45:18.384Z,6.20
2023-03-11T14:48:12.877Z,5.70
2023-03-11T14:51:02.940Z,4.90
2023-03-11T14:54:25.762Z,5.50
2023-03-11T14:57:16.744Z,5.50
2023-03-11T15:00:08.103Z,5.60
2023-03-11T15:03:08.117Z,5.70
2023-03-11T15:05:56.164Z,5.70
2023-03-11T15:08:57.244Z,5.80
2023-03-11T15:11:59.235Z,5.80
2023-03-11T15:14:53.593Z,6.10
2023-03-11T15:17:44.194Z,6.00
2023-03-11T15:20:39.082Z,5.70
2023-03-11T15:23:24.464Z,5.60
2023-03-11T15:26:28.200Z,5.80
2023-03-11T15:29:16.412Z,5.90
2023-03-11T15:32:41.503Z,5.70
2023-03-11T15:35:29.430Z,5.60
2023-03-11T15:38:25.470Z,5.50
2023-03-11T15:41:11.388Z,5.50
2023-03-11T15:44:01.940Z,5.40
2023-03-11T15:46:47.429Z,5.40
2023-03-11T15:49:34.046Z,5.40
2023-03-11T15:52:20.208Z,6.00
2023-03-11T15:55:06.250Z,5.40
2023-03-11T15:58:00.781Z,5.70
2023-03-11T16:00:57.401Z,5.50
2023-03-11T16:03:43.256Z,5.20
2023-03-11T16:06:28.934Z,5.30
2023-03-11T16:09:15.953Z,5.70
2023-03-11T16:12:06.264Z,5.60
2023-03-11T16:14:51.499Z,5.70
2023-03-11T16:17:49.464Z,5.50
2023-03-11T16:20:49.792Z,5.50
2023-03-11T16:23:50.602Z,5.40
2023-03-11T16:26:37.307Z,5.70
2023-03-11T16:29:23.755Z,5.70
2023-03-11T16:32:10.672Z,5.50
2023-03-11T16:34:56.019Z,5.50
2023-03-11T16:37:43.477Z,5.50
2023-03-11T16:40:29.227Z,6.40
2023-03-11T16:43:15.463Z,5.50
2023-03-11T16:46:01.057Z,5.70
2023-03-11T16:48:46.488Z,5.90
2023-03-11T16:51:32.236Z,6.00
2023-03-11T16:54:17.386Z,5.90
2023-03-11T16:57:03.111Z,5.90
2023-03-11T16:59:49.393Z,6.50
2023-03-11T17:02:35.495Z,5.90
2023-03-11T17:05:21.583Z,5.80
2023-03-11T17:08:07.584Z,5.40
2023-03-11T17:10:53.021Z,5.90
2023-03-11T17:13:38.226Z,5.40
2023-03-11T17:16:23.943Z,6.10
2023-03-11T17:19:09.417Z,5.20
2023-03-11T17:21:54.762Z,5.10
2023-03-11T17:24:40.296Z,5.10
2023-03-11T17:27:26.230Z,4.80
2023-03-11T17:30:13.019Z,4.70
2023-03-11T17:32:58.314Z,4.70
2023-03-11T17:35:44.005Z,4.80
2023-03-11T17:38:29.599Z,4.80
2023-03-11T17:41:17.004Z,4.80
2023-03-11T17:44:02.539Z,4.90
2023-03-11T17:46:47.979Z,5.00
2023-03-11T17:49:33.602Z,5.90
2023-03-11T17:52:19.318Z,5.10
2023-03-11T17:55:05.196Z,4.90
2023-03-11T17:57:52.822Z,5.00
2023-03-11T18:00:38.399Z,4.90
2023-03-11T18:03:23.452Z,4.90
2023-03-11T18:06:10.705Z,5.00
2023-03-11T18:08:56.260Z,5.00
2023-03-11T18:11:41.562Z,5.10
2023-03-11T18:14:27.231Z,5.30
2023-03-11T18:17:12.734Z,5.30
2023-03-11T18:20:00.512Z,5.10
2023-03-11T18:22:47.290Z,5.10
2023-03-11T18:25:33.033Z,5.00
2023-03-11T18:28:18.533Z,5.20
2023-03-11T18:31:09.083Z,5.00
2023-03-11T18:34:02.334Z,5.00
2023-03-11T18:36:49.206Z,6.00
2023-03-11T18:39:35.110Z,5.00
2023-03-11T18:42:20.754Z,5.10
2023-03-11T18:45:06.813Z,5.20
2023-03-11T18:47:52.321Z,5.20
2023-03-11T18:50:37.937Z,5.20
2023-03-11T18:53:26.277Z,5.30
2023-03-11T18:56:14.037Z,5.40
2023-03-11T18:59:00.399Z,5.40
2023-03-11T19:01:45.858Z,5.90
2023-03-11T19:04:33.106Z,7.30
2023-03-11T19:07:18.938Z,5.60
2023-03-11T19:10:04.704Z,5.50
2023-03-11T19:12:50.120Z,5.50
2023-03-11T19:15:40.488Z,5.40
2023-03-11T19:18:26.196Z,5.90
2023-03-11T19:21:13.550Z,5.20
2023-03-11T19:24:00.139Z,5.10
2023-03-11T19:26:46.319Z,5.00
2023-03-11T19:29:31.913Z,4.90
2023-03-11T19:32:17.435Z,4.80
2023-03-11T19:35:02.862Z,4.80
2023-03-11T19:37:48.842Z,4.80
2023-03-11T19:40:34.174Z,4.60
2023-03-11T19:43:20.260Z,4.60
2023-03-11T19:46:07.795Z,4.60
2023-03-11T19:48:56.727Z,4.60
2023-03-11T19:51:50.128Z,4.60
2023-03-11T19:54:36.734Z,5.80
2023-03-11T19:57:22.356Z,4.80
2023-03-11T20:00:09.211Z,4.80
2023-03-11T20:02:56.768Z,4.80
2023-03-11T20:05:44.602Z,4.80
2023-03-11T20:08:30.362Z,5.00
2023-03-11T20:11:16.246Z,5.10
2023-03-11T20:14:01.509Z,5.20
2023-03-11T20:16:46.933Z,5.20
2023-03-11T20:19:32.440Z,5.10
2023-03-11T20:22:18.293Z,5.30
2023-03-11T20:25:03.998Z,5.00
2023-03-11T20:27:49.249Z,5.10
2023-03-11T20:30:36.930Z,5.30
2023-03-11T20:33:22.228Z,5.20
2023-03-11T20:36:16.659Z,5.20
2023-03-11T20:39:04.619Z,5.50
2023-03-11T20:41:50.042Z,6.10
2023-03-11T20:44:35.362Z,5.20
2023-03-11T20:47:21.415Z,5.30
2023-03-11T20:50:07.399Z,5.30
2023-03-11T20:52:52.951Z,5.40
2023-03-11T20:55:40.930Z,5.30
2023-03-11T20:58:26.552Z,7.00
2023-03-11T21:01:14.838Z,5.40
2023-03-11T21:04:02.694Z,5.30
2023-03-11T21:06:49.869Z,5.40
2023-03-11T21:09:35.413Z,5.30
2023-03-11T21:12:21.881Z,5.40
2023-03-11T21:15:08.838Z,5.40
2023-03-11T21:17:54.424Z,5.30
2023-03-11T21:20:39.842Z,5.20
2023-03-11T21:23:25.593Z,5.30
2023-03-11T21:26:13.042Z,5.30
2023-03-11T21:28:58.374Z,5.40
2023-03-11T21:31:43.660Z,5.40
2023-03-11T21:34:29.366Z,6.30
2023-03-11T21:37:14.677Z,7.80
2023-03-11T21:40:00.759Z,5.60
2023-03-11T21:42:46.012Z,5.50
2023-03-11T21:45:31.639Z,5.40
2023-03-11T21:48:17.285Z,5.40
2023-03-11T21:51:02.993Z,5.40
2023-03-11T21:53:48.753Z,5.40
2023-03-11T21:56:34.607Z,5.30
2023-03-11T21:59:20.524Z,5.30
2023-03-11T22:02:06.756Z,7.60
2023-03-11T22:04:52.592Z,5.30
2023-03-11T22:07:38.769Z,5.40
2023-03-11T22:10:24.433Z,5.60
2023-03-11T22:13:09.878Z,5.40
2023-03-11T22:15:55.376Z,5.50
2023-03-11T22:18:41.202Z,5.40
2023-03-11T22:21:26.786Z,5.30
2023-03-11T22:24:12.253Z,5.30
2023-03-11T22:26:57.769Z,5.40
2023-03-11T22:29:44.361Z,5.50
2023-03-11T22:32:29.768Z,5.60
2023-03-11T22:35:15.445Z,5.60
2023-03-11T22:38:00.839Z,5.70
2023-03-11T22:40:46.108Z,5.60
2023-03-11T22:43:31.417Z,5.40
2023-03-11T22:46:16.742Z,5.30
2023-03-11T22:49:02.259Z,5.30
2023-03-11T22:51:47.764Z,5.30
2023-03-11T22:54:33.230Z,5.30
2023-03-11T22:57:18.869Z,5.20
2023-03-11T23:00:17.285Z,5.00
2023-03-11T23:03:02.914Z,5.00
2023-03-11T23:05:48.192Z,5.00
2023-03-11T23:08:34.771Z,5.10
2023-03-11T23:11:21.445Z,5.00
2023-03-11T23:14:06.742Z,5.20
2023-03-11T23:16:52.291Z,5.40
2023-03-11T23:19:37.900Z,5.20
2023-03-11T23:22:24.668Z,5.30
2023-03-11T23:25:14.285Z,5.40
2023-03-11T23:28:02.268Z,5.10
2023-03-11T23:30:47.604Z,5.20
2023-03-11T23:33:33.225Z,5.30
2023-03-11T23:36:21.313Z,5.40
2023-03-11T23:39:06.524Z,5.10
2023-03-11T23:41:52.153Z,5.10
2023-03-11T23:44:37.554Z,5.20
2023-03-11T23:47:22.927Z,5.20
2023-03-11T23:50:09.070Z,5.10
2023-03-11T23:52:54.628Z,5.20
2023-03-11T23:55:40.211Z,6.30
2023-03-11T23:58:26.037Z,5.60
